Time;durP1;ratioP1;P1;durP2;ratioP2;P2;SDS_P1;SDS_P2;PMS_P1;PMS_P2;Temp;Humidity;BMP_temperature;BMP_pressure;BME280_temperature;BME280_humidity;BME280_pressure;Samples;Min_cycle;Max_cycle;Signal;HPM_P1;HPM_P2
2022/10/12 00:02:01;;;;;;;22.07;10.83;;;6.10;99.90;;;;;;6249067;22;20054;-86
2022/10/12 00:04:27;;;;;;;25.07;10.60;;;6.10;99.90;;;;;;6276955;22;20077;-86
2022/10/12 00:06:53;;;;;;;25.97;11.20;;;6.10;99.90;;;;;;6277215;22;20011;-86
2022/10/12 00:09:21;;;;;;;25.40;11.70;;;6.10;99.90;;;;;;6276342;22;20020;-86
2022/10/12 00:11:47;;;;;;;20.23;11.20;;;6.10;99.90;;;;;;6250397;22;20121;-86
2022/10/12 00:14:12;;;;;;;23.87;11.57;;;6.20;99.90;;;;;;6277243;22;20396;-86
2022/10/12 00:16:38;;;;;;;23.37;12.23;;;6.20;99.90;;;;;;6276560;22;20023;-86
2022/10/12 00:19:04;;;;;;;24.53;12.77;;;6.10;99.90;;;;;;6249629;22;20089;-86
2022/10/12 00:21:30;;;;;;;24.80;14.30;;;6.10;99.90;;;;;;6248991;22;20015;-86
2022/10/12 00:26:51;;;;;;;30.20;17.43;;;7.30;99.90;;;;;;6219097;23;20440;-86
2022/10/12 00:29:35;;;;;;;29.83;18.17;;;5.90;99.90;;;;;;6244871;23;20066;-86
2022/10/12 00:32:19;;;;;;;33.75;21.25;;;5.90;99.90;;;;;;6219026;23;20022;-86
2022/10/12 00:35:37;;;;;;;30.52;21.52;;;5.70;99.90;;;;;;6246546;23;20083;-86
2022/10/12 00:38:03;;;;;;;34.83;23.57;;;6.10;99.90;;;;;;6245735;23;20016;-86
2022/10/12 00:40:29;;;;;;;34.10;23.67;;;5.70;99.90;;;;;;6219647;22;20027;-86
2022/10/12 00:42:54;;;;;;;35.53;23.33;;;5.60;99.90;;;;;;6248850;22;20054;-86
2022/10/12 00:45:21;;;;;;;32.43;24.10;;;5.90;99.90;;;;;;6249103;22;20010;-86
2022/10/12 00:47:54;;;;;;;32.67;23.40;;;5.80;99.90;;;;;;6276683;22;20030;-86
2022/10/12 00:50:31;;;;;;;35.42;24.45;;;5.80;99.90;;;;;;6248301;22;20012;-86
2022/10/12 00:53:16;;;;;;;34.70;23.17;;;5.70;99.90;;;;;;6277292;22;20019;-86
2022/10/12 00:55:53;;;;;;;34.30;23.30;;;5.60;99.90;;;;;;6249332;22;20015;-86
2022/10/12 00:58:19;;;;;;;35.60;24.63;;;5.70;99.90;;;;;;6275087;22;20463;-86
2022/10/12 01:00:48;;;;;;;35.57;24.00;;;5.60;99.90;;;;;;6249578;22;20015;-86
2022/10/12 01:03:17;;;;;;;34.77;25.60;;;5.60;99.90;;;;;;6248738;22;20012;-86
2022/10/12 01:05:45;;;;;;;35.03;24.73;;;5.50;99.90;;;;;;6275808;22;20015;-86
2022/10/12 01:08:10;;;;;;;35.10;23.83;;;5.50;99.90;;;;;;6276455;22;20022;-86
2022/10/12 01:10:36;;;;;;;38.17;22.63;;;5.40;99.90;;;;;;6249264;22;20012;-86
2022/10/12 01:13:02;;;;;;;32.53;22.00;;;5.40;99.90;;;;;;6248237;22;20081;-86
2022/10/12 01:15:34;;;;;;;32.27;23.30;;;5.40;99.90;;;;;;6276340;22;20012;-86
2022/10/12 01:18:19;;;;;;;36.67;24.03;;;5.30;99.90;;;;;;6248462;22;20146;-85
2022/10/12 01:21:19;;;;;;;36.60;24.43;;;5.30;99.90;;;;;;6236824;23;20008;-86
2022/10/12 01:24:23;;;;;;;36.47;24.47;;;6.20;99.90;;;;;;6214146;23;20056;-85
2022/10/12 01:27:39;;;;;;;32.47;24.17;;;4.60;99.90;;;;;;6214965;23;20023;-86
2022/10/12 01:30:11;;;;;;;35.27;22.63;;;5.30;99.90;;;;;;6214965;23;20075;-86
2022/10/12 01:33:15;;;;;;;34.07;22.90;;;5.20;99.90;;;;;;6214889;23;20020;-85
2022/10/12 01:35:59;;;;;;;31.33;22.23;;;5.20;99.90;;;;;;6249458;22;20015;-86
2022/10/12 01:46:03;;;;;;;34.63;20.50;;;4.30;99.90;;;;;;6276221;22;20015;-85
2022/10/12 01:48:29;;;;;;;29.33;19.40;;;4.10;99.90;;;;;;6248023;22;20505;-85
2022/10/12 01:50:58;;;;;;;30.03;20.13;;;5.10;99.90;;;;;;6248478;22;20016;-85
2022/10/12 01:53:54;;;;;;;29.10;17.30;;;5.10;99.90;;;;;;6247143;22;20023;-86
2022/10/12 01:56:33;;;;;;;30.20;19.80;;;5.00;99.90;;;;;;6276200;22;20024;-86
2022/10/12 01:59:10;;;;;;;26.83;17.57;;;5.10;99.90;;;;;;6276297;22;20054;-86
2022/10/12 02:01:52;;;;;;;28.10;17.63;;;5.00;99.90;;;;;;6247586;22;20023;-86
2022/10/12 02:04:24;;;;;;;24.00;16.67;;;5.10;99.90;;;;;;6275598;22;20012;-86
2022/10/12 02:07:02;;;;;;;23.23;16.43;;;5.00;99.90;;;;;;6275592;22;20012;-86
2022/10/12 02:09:31;;;;;;;25.00;15.73;;;5.90;99.90;;;;;;6247587;22;20016;-86
2022/10/12 02:12:21;;;;;;;26.90;15.90;;;5.10;99.90;;;;;;6273871;22;20015;-86
2022/10/12 02:14:55;;;;;;;23.17;14.57;;;4.70;99.90;;;;;;6274997;22;20107;-85
2022/10/12 02:17:21;;;;;;;24.75;14.57;;;5.10;99.90;;;;;;6248288;22;20353;-85
2022/10/12 02:19:55;;;;;;;24.97;14.57;;;5.10;99.90;;;;;;6276036;22;20020;-86
2022/10/12 02:22:25;;;;;;;22.97;13.77;;;5.10;99.90;;;;;;6247288;22;20065;-86
2022/10/12 02:25:11;;;;;;;20.80;13.33;;;5.10;99.90;;;;;;6274660;22;20023;-86
2022/10/12 02:27:41;;;;;;;21.00;13.80;;;4.90;99.90;;;;;;6276026;22;20035;-86
2022/10/12 02:30:17;;;;;;;22.20;12.80;;;5.10;99.90;;;;;;6274284;22;20090;-86
2022/10/12 02:33:08;;;;;;;20.87;12.50;;;5.00;99.90;;;;;;6248847;22;20026;-86
2022/10/12 02:35:44;;;;;;;21.80;13.37;;;5.10;99.90;;;;;;6274376;22;20012;-86
2022/10/12 02:38:10;;;;;;;23.63;12.57;;;5.10;99.90;;;;;;6227734;22;20025;-86
2022/10/12 02:40:37;;;;;;;21.33;11.27;;;5.10;99.90;;;;;;6276086;22;20077;-86
2022/10/12 02:43:38;;;;;;;24.63;12.30;;;5.10;99.90;;;;;;6247717;22;20038;-86
2022/10/12 02:46:08;;;;;;;19.17;11.30;;;5.10;99.90;;;;;;6217661;22;20056;-86
2022/10/12 02:48:36;;;;;;;21.53;11.17;;;5.80;99.90;;;;;;6248371;22;20333;-86
2022/10/12 02:51:03;;;;;;;19.53;11.50;;;5.10;99.90;;;;;;6247398;22;20027;-86
2022/10/12 02:53:31;;;;;;;19.73;11.30;;;5.20;99.90;;;;;;6247953;22;20046;-86
2022/10/12 02:56:03;;;;;;;20.30;11.23;;;6.70;99.90;;;;;;6248208;22;20428;-86
2022/10/12 02:58:29;;;;;;;18.87;11.50;;;5.20;99.90;;;;;;6273969;22;20012;-86
2022/10/12 03:00:54;;;;;;;21.90;11.60;;;5.20;99.90;;;;;;6248322;22;20436;-86
2022/10/12 03:03:20;;;;;;;20.23;11.70;;;5.10;99.90;;;;;;6275943;22;20015;-86
2022/10/12 03:05:46;;;;;;;19.50;10.57;;;5.20;99.90;;;;;;6249764;22;20026;-86
2022/10/12 03:08:11;;;;;;;24.23;11.40;;;5.20;99.90;;;;;;6250231;22;20090;-86
2022/10/12 03:10:37;;;;;;;20.67;10.87;;;5.20;99.90;;;;;;6249040;22;20012;-86
2022/10/12 03:13:02;;;;;;;21.17;11.30;;;5.10;99.90;;;;;;6277822;22;20054;-86
2022/10/12 03:15:28;;;;;;;21.20;11.43;;;5.10;99.90;;;;;;6277264;22;20008;-86
2022/10/12 03:17:54;;;;;;;19.97;11.37;;;5.10;99.90;;;;;;6276426;22;20022;-85
2022/10/12 03:20:20;;;;;;;23.07;11.13;;;5.10;99.90;;;;;;6277410;22;20090;-86
2022/10/12 03:22:46;;;;;;;21.13;11.13;;;5.00;99.90;;;;;;6250222;22;20077;-86
2022/10/12 03:25:11;;;;;;;20.70;10.30;;;5.00;99.90;;;;;;6248779;22;20081;-86
2022/10/12 03:27:37;;;;;;;19.70;10.67;;;4.90;99.90;;;;;;6250215;22;20051;-86
2022/10/12 03:30:03;;;;;;;13.57;7.77;;;5.00;99.90;;;;;;6277486;22;20079;-86
2022/10/12 03:32:28;;;;;;;17.80;10.00;;;4.90;99.90;;;;;;6249087;22;20582;-86
2022/10/12 03:34:54;;;;;;;20.63;10.20;;;4.80;99.90;;;;;;6277653;22;20014;-86
2022/10/12 03:37:19;;;;;;;20.60;9.70;;;4.80;99.90;;;;;;6249354;22;20024;-86
2022/10/12 03:39:45;;;;;;;18.03;10.30;;;4.80;99.90;;;;;;6275924;22;20023;-86
2022/10/12 03:42:11;;;;;;;21.47;11.10;;;4.70;99.90;;;;;;6249895;22;20495;-86
2022/10/12 03:44:36;;;;;;;20.50;11.20;;;4.70;99.90;;;;;;6250022;22;20023;-86
2022/10/12 03:47:02;;;;;;;19.77;11.00;;;4.70;99.90;;;;;;6249132;22;20313;-86
2022/10/12 03:49:28;;;;;;;20.07;10.67;;;5.40;99.90;;;;;;6276742;22;20018;-86
2022/10/12 03:51:56;;;;;;;21.90;11.20;;;4.60;99.90;;;;;;6249592;22;20023;-86
2022/10/12 03:54:22;;;;;;;19.20;8.87;;;4.60;99.90;;;;;;6275782;22;20016;-86
2022/10/12 03:56:50;;;;;;;16.77;8.70;;;4.50;99.90;;;;;;6249937;22;20444;-86
2022/10/12 04:02:44;;;;;;;17.73;8.60;;;4.50;99.90;;;;;;6214486;22;20445;-86
2022/10/12 04:05:09;;;;;;;17.07;8.57;;;5.20;99.90;;;;;;6150634;23;20468;-86
2022/10/12 04:07:35;;;;;;;16.70;7.83;;;5.60;99.90;;;;;;6187683;23;20016;-85
2022/10/12 04:10:01;;;;;;;16.73;8.30;;;4.40;99.90;;;;;;6215761;23;20364;-86
2022/10/12 04:12:26;;;;;;;16.47;8.03;;;5.80;99.90;;;;;;6188890;23;20099;-86
2022/10/12 04:14:52;;;;;;;16.07;9.03;;;4.40;99.90;;;;;;6214898;23;20015;-86
2022/10/12 04:17:18;;;;;;;15.13;7.97;;;4.30;99.90;;;;;;6188916;23;20024;-86
2022/10/12 04:19:46;;;;;;;16.00;8.10;;;4.30;99.90;;;;;;6188798;23;20017;-86
2022/10/12 04:22:15;;;;;;;15.83;7.67;;;4.30;99.90;;;;;;6214714;23;20075;-86
2022/10/12 04:24:40;;;;;;;16.67;8.30;;;4.40;99.90;;;;;;6188748;23;20020;-86
2022/10/12 04:27:06;;;;;;;16.70;7.67;;;4.30;99.90;;;;;;6215960;23;20019;-86
2022/10/12 04:29:32;;;;;;;14.70;8.23;;;4.20;99.90;;;;;;6187930;23;20023;-86
2022/10/12 04:31:57;;;;;;;23.43;9.73;;;4.20;99.90;;;;;;6188923;23;20095;-86
2022/10/12 04:34:31;;;;;;;19.50;9.67;;;4.20;99.90;;;;;;6188744;23;20437;-86
2022/10/12 04:36:56;;;;;;;;;;;4.20;99.90;;;;;;6215041;23;20449;-86
2022/10/12 04:39:22;;;;;;;27.07;11.50;;;4.30;99.90;;;;;;6188718;23;19954;-86
2022/10/12 04:41:48;;;;;;;33.00;13.30;;;4.30;99.90;;;;;;6188797;23;20015;-86
2022/10/12 04:44:13;;;;;;;31.03;13.30;;;4.30;99.90;;;;;;6215000;23;20043;-86
2022/10/12 04:46:39;;;;;;;31.70;14.60;;;4.30;99.90;;;;;;6188921;23;20014;-86
2022/10/12 04:49:04;;;;;;;31.40;14.13;;;4.40;99.90;;;;;;6187729;23;20047;-86
2022/10/12 04:51:30;;;;;;;29.93;14.10;;;4.40;99.90;;;;;;6187983;23;20095;-86
2022/10/12 04:53:56;;;;;;;36.67;18.17;;;4.40;99.90;;;;;;6188854;23;20044;-86
2022/10/12 04:56:21;;;;;;;33.37;16.73;;;4.50;99.90;;;;;;6214462;23;20016;-86
2022/10/12 04:58:47;;;;;;;36.43;17.93;;;4.40;99.90;;;;;;6215386;23;20080;-86
2022/10/12 05:01:12;;;;;;;29.70;14.87;;;4.50;99.90;;;;;;6187939;23;20095;-86
2022/10/12 05:03:38;;;;;;;31.50;15.37;;;4.40;99.90;;;;;;6187859;23;20100;-86
2022/10/12 05:06:04;;;;;;;38.70;18.23;;;4.40;99.90;;;;;;6215281;23;20028;-86
2022/10/12 05:08:29;;;;;;;30.47;16.57;;;4.40;99.90;;;;;;6215270;23;20082;-86
2022/10/12 05:10:58;;;;;;;30.63;16.17;;;5.40;99.90;;;;;;6214698;23;20021;-86
2022/10/12 05:13:24;;;;;;;32.57;15.73;;;4.40;99.90;;;;;;6215471;23;20019;-86
2022/10/12 05:15:50;;;;;;;30.97;15.13;;;4.30;99.90;;;;;;6188619;23;20065;-86
2022/10/12 05:18:16;;;;;;;31.73;15.37;;;4.30;99.90;;;;;;6187588;23;20062;-86
2022/10/12 05:20:42;;;;;;;30.17;16.00;;;4.30;99.90;;;;;;6215842;23;20333;-86
2022/10/12 05:23:09;;;;;;;28.77;15.23;;;4.30;99.90;;;;;;6215538;23;20119;-86
2022/10/12 05:25:35;;;;;;;29.53;16.10;;;4.20;99.90;;;;;;6187073;23;20012;-86
2022/10/12 05:28:01;;;;;;;28.23;16.67;;;4.20;99.90;;;;;;6188717;23;20027;-86
2022/10/12 05:30:27;;;;;;;29.70;16.17;;;4.20;99.90;;;;;;6188322;23;20035;-86
2022/10/12 05:32:55;;;;;;;30.47;15.27;;;4.20;99.90;;;;;;6186467;23;20104;-87
2022/10/12 05:35:21;;;;;;;27.43;13.47;;;4.10;99.90;;;;;;6188644;23;20013;-86
2022/10/12 05:37:47;;;;;;;29.07;14.50;;;4.10;99.90;;;;;;6189029;23;20111;-86
2022/10/12 05:40:13;;;;;;;22.80;12.77;;;4.10;99.90;;;;;;6187715;23;20074;-86
2022/10/12 05:42:38;;;;;;;25.93;12.63;;;4.00;99.90;;;;;;6188777;23;20017;-87
2022/10/12 05:45:04;;;;;;;23.97;10.40;;;4.00;99.90;;;;;;6215369;23;20333;-88
2022/10/12 05:47:30;;;;;;;22.60;11.17;;;3.90;99.90;;;;;;6213843;23;20027;-86
2022/10/12 05:49:56;;;;;;;23.27;11.47;;;3.90;99.90;;;;;;6215528;23;20017;-84
2022/10/12 05:52:40;;;;;;;23.17;11.20;;;3.90;99.90;;;;;;6212010;22;20016;-85
2022/10/12 05:55:06;;;;;;;21.88;10.68;;;4.90;99.90;;;;;;6218569;23;20025;-83
2022/10/12 05:57:31;;;;;;;26.93;10.53;;;3.80;99.90;;;;;;6218553;23;20091;-84
2022/10/12 06:00:15;;;;;;;19.57;10.03;;;3.80;99.90;;;;;;6217789;23;20044;-83
2022/10/12 06:02:40;;;;;;;21.83;10.60;;;3.80;99.90;;;;;;6218807;23;20024;-83
2022/10/12 06:05:06;;;;;;;20.37;10.53;;;3.80;99.90;;;;;;6218563;23;20023;-84
2022/10/12 06:07:32;;;;;;;19.33;9.83;;;3.80;99.90;;;;;;6217604;23;20352;-83
2022/10/12 06:09:57;;;;;;;21.13;9.97;;;3.70;99.90;;;;;;6245832;23;20055;-85
2022/10/12 06:12:23;;;;;;;20.43;9.83;;;3.70;99.90;;;;;;6244968;23;20443;-84
2022/10/12 06:14:49;;;;;;;23.63;9.63;;;4.10;99.90;;;;;;6217898;23;20018;-85
2022/10/12 06:17:15;;;;;;;23.00;10.77;;;3.70;99.90;;;;;;6245164;23;20027;-84
2022/10/12 06:19:40;;;;;;;23.40;10.63;;;5.10;99.90;;;;;;6245564;23;20024;-84
2022/10/12 06:22:06;;;;;;;20.73;10.13;;;3.70;99.90;;;;;;6217399;23;20321;-84
2022/10/12 06:24:32;;;;;;;26.53;11.03;;;3.70;99.90;;;;;;6218978;23;20467;-84
2022/10/12 06:26:58;;;;;;;23.10;11.33;;;3.70;99.90;;;;;;6218080;23;20017;-83
2022/10/12 06:29:26;;;;;;;26.83;11.90;;;3.70;99.90;;;;;;6244109;23;20365;-82
2022/10/12 06:31:53;;;;;;;22.87;11.73;;;3.80;99.90;;;;;;6218378;23;20023;-83
2022/10/12 06:34:18;;;;;;;23.33;12.20;;;4.60;99.90;;;;;;6217480;23;20445;-83
2022/10/12 06:36:44;;;;;;;27.27;12.80;;;5.30;99.90;;;;;;6244229;23;20016;-83
2022/10/12 06:39:09;;;;;;;26.47;12.80;;;3.80;99.90;;;;;;6218027;23;20377;-83
2022/10/12 06:41:36;;;;;;;23.60;12.40;;;3.80;99.90;;;;;;6217305;23;20023;-83
2022/10/12 06:44:02;;;;;;;21.80;11.77;;;3.90;99.90;;;;;;6217605;23;20469;-83
2022/10/12 06:46:27;;;;;;;24.03;12.47;;;3.90;99.90;;;;;;6252042;22;20016;-83
2022/10/12 06:49:21;;;;;;;24.67;12.33;;;4.70;99.90;;;;;;6275225;22;20425;-83
2022/10/12 06:51:47;;;;;;;24.30;12.10;;;3.70;99.90;;;;;;6248788;22;20019;-83
2022/10/12 06:54:13;;;;;;;25.77;11.90;;;4.30;99.90;;;;;;6275846;22;20020;-84
2022/10/12 06:56:51;;;;;;;25.80;11.77;;;4.10;99.90;;;;;;6247684;22;20061;-87
2022/10/12 06:59:22;;;;;;;25.43;12.30;;;3.70;99.90;;;;;;6248227;22;20008;-84
2022/10/12 07:01:49;;;;;;;26.27;11.33;;;3.90;99.90;;;;;;6276237;22;20023;-85
2022/10/12 07:04:20;;;;;;;21.33;11.50;;;5.60;99.90;;;;;;6274852;22;20074;-84
2022/10/12 07:06:45;;;;;;;21.27;11.67;;;4.30;99.90;;;;;;6276097;22;20074;-84
2022/10/12 07:09:26;;;;;;;24.57;11.97;;;4.20;99.90;;;;;;6275802;22;20007;-84
2022/10/12 07:12:04;;;;;;;26.63;11.70;;;4.20;99.90;;;;;;6247671;22;20022;-84
2022/10/12 07:14:30;;;;;;;22.27;11.57;;;4.60;99.90;;;;;;6274709;22;20012;-84
2022/10/12 07:16:55;;;;;;;23.43;10.90;;;4.70;99.90;;;;;;6247566;22;20585;-84
2022/10/12 07:19:21;;;;;;;24.97;12.30;;;4.90;99.90;;;;;;6248417;22;20091;-84
2022/10/12 07:21:46;;;;;;;24.37;11.73;;;5.00;99.90;;;;;;6276056;22;20015;-85
2022/10/12 07:24:12;;;;;;;22.20;11.40;;;5.10;99.90;;;;;;6247443;22;20313;-85
2022/10/12 07:26:38;;;;;;;22.53;10.90;;;5.20;99.90;;;;;;6248611;22;20016;-85
2022/10/12 07:29:03;;;;;;;22.93;10.47;;;5.30;99.90;;;;;;6248551;22;20173;-84
2022/10/12 07:31:29;;;;;;;21.03;9.97;;;5.50;99.90;;;;;;6247086;22;20356;-87
2022/10/12 07:33:54;;;;;;;25.20;10.37;;;5.50;99.90;;;;;;6248568;22;20389;-86
2022/10/12 07:36:20;;;;;;;26.37;10.13;;;5.50;99.90;;;;;;6248334;22;20016;-85
2022/10/12 07:38:47;;;;;;;23.40;9.30;;;6.90;99.90;;;;;;6274946;22;20077;-87
2022/10/12 07:41:13;;;;;;;25.93;9.73;;;5.70;99.90;;;;;;6248152;22;20019;-83
2022/10/12 07:43:39;;;;;;;21.50;9.27;;;5.80;99.90;;;;;;6248536;22;20011;-84
2022/10/12 07:46:14;;;;;;;19.73;9.53;;;6.00;99.90;;;;;;6268547;22;20035;-83
2022/10/12 07:48:43;;;;;;;20.00;8.83;;;6.00;99.90;;;;;;6248677;22;20030;-83
2022/10/12 07:51:09;;;;;;;20.80;9.20;;;6.70;99.90;;;;;;6249626;22;20026;-83
2022/10/12 07:53:38;;;;;;;21.17;9.30;;;6.20;99.90;;;;;;6276863;22;20016;-84
2022/10/12 07:56:06;;;;;;;16.70;8.43;;;6.30;99.90;;;;;;6250437;22;20039;-84
2022/10/12 07:58:32;;;;;;;23.70;8.67;;;6.30;99.90;;;;;;6277577;22;20022;-83
2022/10/12 08:01:05;;;;;;;21.50;9.30;;;6.40;99.90;;;;;;6249037;22;20019;-83
2022/10/12 08:03:31;;;;;;;15.75;8.48;;;6.40;99.90;;;;;;6250279;22;20043;-83
2022/10/12 08:05:57;;;;;;;19.20;7.90;;;6.50;99.90;;;;;;6249379;22;20016;-83
2022/10/12 08:08:22;;;;;;;23.70;8.20;;;6.60;99.90;;;;;;6277357;22;20050;-83
2022/10/12 08:10:48;;;;;;;19.30;7.60;;;6.70;99.90;;;;;;6250065;22;20440;-83
2022/10/12 08:13:14;;;;;;;19.70;7.97;;;6.80;99.90;;;;;;6248767;22;20066;-82
2022/10/12 08:15:39;;;;;;;20.27;7.77;;;6.90;99.90;;;;;;6249953;22;20014;-85
2022/10/12 08:18:05;;;;;;;22.70;7.73;;;7.10;99.90;;;;;;6250141;22;20106;-83
2022/10/12 08:20:31;;;;;;;17.20;7.20;;;7.80;99.90;;;;;;6248340;22;20436;-83
2022/10/12 08:22:56;;;;;;;23.33;7.03;;;7.60;99.90;;;;;;6275555;22;20015;-83
2022/10/12 08:25:22;;;;;;;18.80;7.17;;;7.80;99.90;;;;;;6249477;22;20061;-83
2022/10/12 08:27:47;;;;;;;18.00;6.55;;;8.10;99.90;;;;;;6276317;22;20012;-83
2022/10/12 08:30:13;;;;;;;18.38;6.57;;;8.20;99.90;;;;;;6249224;22;20012;-83
2022/10/12 08:32:39;;;;;;;20.57;6.90;;;8.40;99.90;;;;;;6277310;22;20074;-83
2022/10/12 08:35:05;;;;;;;16.42;6.15;;;8.60;99.90;;;;;;6276203;22;20534;-84
2022/10/12 08:37:30;;;;;;;21.65;7.43;;;8.70;99.90;;;;;;6276634;22;20501;-83
2022/10/12 08:39:56;;;;;;;17.60;5.95;;;8.80;99.90;;;;;;6277538;22;20015;-83
2022/10/12 08:42:44;;;;;;;17.85;6.15;;;8.90;99.90;;;;;;6248598;22;20029;-83
2022/10/12 08:45:53;;;;;;;17.50;6.47;;;8.90;99.90;;;;;;6250070;22;20099;-83
2022/10/12 08:48:31;;;;;;;15.65;5.85;;;9.00;99.90;;;;;;6248306;22;20126;-83
2022/10/12 08:51:23;;;;;;;19.50;5.95;;;9.10;99.90;;;;;;6237044;22;20027;-83
2022/10/12 08:54:06;;;;;;;19.25;6.78;;;9.20;99.90;;;;;;6244656;23;20070;-84
2022/10/12 08:56:38;;;;;;;15.73;5.78;;;9.30;99.90;;;;;;6244403;23;20020;-83
2022/10/12 08:59:04;;;;;;;19.92;5.88;;;9.40;99.90;;;;;;6244696;23;20011;-83
2022/10/12 09:01:36;;;;;;;20.33;5.90;;;9.50;99.90;;;;;;6245542;23;20016;-83
2022/10/12 09:04:31;;;;;;;14.57;5.78;;;9.60;99.90;;;;;;6245871;22;20016;-83
2022/10/12 09:07:05;;;;;;;16.42;5.68;;;9.70;99.90;;;;;;6246592;23;20083;-83
2022/10/12 09:09:57;;;;;;;17.23;5.70;;;9.80;99.90;;;;;;6245578;22;20079;-83
2022/10/12 09:13:03;;;;;;;15.73;5.47;;;9.90;99.90;;;;;;6244187;23;20061;-83
2022/10/12 09:15:31;;;;;;;20.00;6.30;;;10.00;99.90;;;;;;6243873;23;20099;-83
2022/10/12 09:17:59;;;;;;;17.15;5.32;;;10.10;99.90;;;;;;6243571;22;20448;-83
2022/10/12 09:20:31;;;;;;;16.35;5.68;;;10.20;99.90;;;;;;6243324;23;20028;-83
2022/10/12 09:23:24;;;;;;;12.90;5.63;;;10.20;99.90;;;;;;6246398;22;20023;-83
2022/10/12 09:26:14;;;;;;;16.15;5.70;;;10.20;99.90;;;;;;6244551;23;20078;-83
2022/10/12 09:28:42;;;;;;;18.83;6.47;;;10.30;99.90;;;;;;6244394;23;20108;-83
2022/10/12 09:31:26;;;;;;;14.60;5.63;;;11.10;99.90;;;;;;6244502;23;20016;-83
2022/10/12 09:33:59;;;;;;;;;;;10.40;99.90;;;;;;6244884;23;20150;-83
2022/10/12 09:36:32;;;;;;;17.50;5.93;;;10.40;99.90;;;;;;6246004;22;19922;-83
2022/10/12 09:39:01;;;;;;;18.63;6.53;;;10.40;99.90;;;;;;6243540;23;20012;-83
2022/10/12 09:41:35;;;;;;;15.10;6.13;;;10.90;99.90;;;;;;6245974;22;20023;-84
2022/10/12 09:44:03;;;;;;;14.77;6.13;;;10.40;99.90;;;;;;6244281;23;20020;-84
2022/10/12 09:46:44;;;;;;;17.40;6.13;;;10.50;99.90;;;;;;6245148;22;20013;-84
2022/10/12 09:49:10;;;;;;;16.52;6.00;;;10.50;99.90;;;;;;6246058;22;20016;-83
2022/10/12 09:51:36;;;;;;;15.95;6.00;;;10.60;99.90;;;;;;6242967;23;20123;-83
2022/10/12 09:54:04;;;;;;;15.68;5.93;;;10.60;99.90;;;;;;6244282;23;20100;-83
2022/10/12 09:56:41;;;;;;;13.85;5.50;;;10.70;99.90;;;;;;6243772;23;20031;-83
2022/10/12 09:59:35;;;;;;;14.55;5.15;;;10.70;99.90;;;;;;6244574;22;20020;-83
2022/10/12 10:02:10;;;;;;;17.17;5.97;;;10.80;99.90;;;;;;6244041;23;20024;-84
2022/10/12 10:04:37;;;;;;;14.02;5.90;;;10.80;99.90;;;;;;6244184;23;20459;-85
2022/10/12 10:07:28;;;;;;;16.20;5.55;;;11.60;99.90;;;;;;6244470;22;20028;-84
2022/10/12 10:10:09;;;;;;;15.40;5.63;;;11.20;99.90;;;;;;6245504;22;20444;-87
2022/10/12 10:15:21;;;;;;;18.23;6.90;;;11.70;99.90;;;;;;6260988;22;20035;-85
2022/10/12 10:18:31;;;;;;;17.15;5.97;;;12.90;99.90;;;;;;6276466;22;20020;-85
2022/10/12 10:20:58;;;;;;;17.90;6.60;;;12.10;99.90;;;;;;6247793;22;20332;-85
2022/10/12 10:23:27;;;;;;;14.30;5.68;;;13.30;99.90;;;;;;6275916;22;20066;-84
2022/10/12 10:26:04;;;;;;;13.98;5.63;;;12.50;99.90;;;;;;6276464;22;20008;-84
2022/10/12 10:28:35;;;;;;;14.95;5.45;;;12.70;99.90;;;;;;6275092;22;20034;-85
2022/10/12 10:31:04;;;;;;;15.65;5.68;;;13.00;99.90;;;;;;6275942;22;20048;-85
2022/10/12 10:34:06;;;;;;;12.90;5.15;;;13.00;99.90;;;;;;6275284;22;20797;-85
2022/10/12 10:36:55;;;;;;;14.55;4.50;;;13.30;99.90;;;;;;6275907;22;20463;-84
2022/10/12 10:39:50;;;;;;;13.48;4.28;;;14.60;99.90;;;;;;6275779;22;20057;-83
2022/10/12 10:42:34;;;;;;;13.98;4.00;;;13.80;99.90;;;;;;6275176;22;20046;-85
2022/10/12 10:45:25;;;;;;;;;;;13.80;99.90;;;;;;6275897;22;20522;-84
2022/10/12 10:48:16;;;;;;;12.45;4.03;;;13.80;99.90;;;;;;6274565;22;19913;-85
2022/10/12 10:50:43;;;;;;;13.20;3.72;;;14.10;99.90;;;;;;6248719;22;20016;-83
2022/10/12 10:53:23;;;;;;;13.25;4.07;;;13.90;99.90;;;;;;6247597;22;20095;-84
2022/10/12 10:56:10;;;;;;;15.05;4.43;;;15.10;99.90;;;;;;6275070;22;20012;-83
2022/10/12 11:05:37;;;;;;;14.13;3.60;;;14.20;99.90;;;;;;6274848;22;20019;-83
2022/10/12 11:08:18;;;;;;;11.02;3.85;;;14.20;99.90;;;;;;6248393;22;20027;-83
2022/10/12 11:11:00;;;;;;;10.52;3.35;;;14.30;99.90;;;;;;6247111;22;20016;-83
2022/10/12 11:13:45;;;;;;;13.27;4.18;;;14.50;99.90;;;;;;6247922;22;20019;-83
2022/10/12 11:16:27;;;;;;;12.98;3.30;;;15.40;99.90;;;;;;6237622;22;20043;-83
2022/10/12 11:18:57;;;;;;;10.93;3.15;;;14.70;99.90;;;;;;6248465;22;20023;-84
2022/10/12 11:21:34;;;;;;;11.35;3.80;;;14.80;99.90;;;;;;6275084;22;20023;-83
2022/10/12 11:24:15;;;;;;;12.45;4.40;;;14.70;99.90;;;;;;6248001;22;20012;-83
2022/10/12 11:26:52;;;;;;;11.70;3.42;;;14.90;99.90;;;;;;6278042;22;20023;-83
2022/10/12 11:29:17;;;;;;;11.77;3.25;;;15.10;99.90;;;;;;6249680;22;20038;-83
2022/10/12 11:31:57;;;;;;;11.98;3.70;;;15.20;99.90;;;;;;6249229;22;20020;-84
2022/10/12 11:34:26;;;;;;;11.85;3.20;;;15.30;99.90;;;;;;6277472;22;20340;-83
2022/10/12 11:36:54;;;;;;;11.63;3.30;;;15.40;99.90;;;;;;6249613;22;20095;-83
2022/10/12 11:39:38;;;;;;;12.52;3.05;;;15.60;99.90;;;;;;6275882;22;20012;-83
2022/10/12 11:42:06;;;;;;;;;;;15.60;99.90;;;;;;6250627;22;20053;-83
2022/10/12 11:44:42;;;;;;;11.65;3.15;;;15.60;99.90;;;;;;6249518;22;19915;-84
2022/10/12 11:47:29;;;;;;;12.30;3.03;;;15.60;99.90;;;;;;6277192;22;20057;-83
2022/10/12 11:49:59;;;;;;;15.07;2.90;;;15.60;99.90;;;;;;6277784;22;20026;-84
2022/10/12 11:52:35;;;;;;;11.70;3.30;;;15.70;99.90;;;;;;6248306;22;20066;-84
2022/10/12 11:55:53;;;;;;;14.02;3.15;;;15.90;99.90;;;;;;6226474;22;20019;-83
2022/10/12 11:58:29;;;;;;;10.30;3.40;;;16.00;99.90;;;;;;6122122;23;20399;-83
2022/10/12 12:01:28;;;;;;;10.48;3.10;;;16.10;99.90;;;;;;6196373;23;20016;-83
2022/10/12 12:04:13;;;;;;;12.13;3.50;;;16.10;99.90;;;;;;6213963;23;20078;-83
2022/10/12 12:06:47;;;;;;;15.60;4.30;;;16.20;99.90;;;;;;6215038;23;20024;-83
2022/10/12 12:09:19;;;;;;;13.88;3.67;;;16.10;99.90;;;;;;6213533;23;20020;-83
2022/10/12 12:11:45;;;;;;;10.77;3.45;;;16.40;99.90;;;;;;6216214;23;20012;-83
2022/10/12 12:14:20;;;;;;;13.13;3.75;;;16.30;99.90;;;;;;6213059;23;20019;-83
2022/10/12 12:16:47;;;;;;;12.10;3.47;;;16.30;99.90;;;;;;6214091;23;20020;-83
2022/10/12 12:19:14;;;;;;;15.73;3.78;;;16.50;99.90;;;;;;6215216;23;20008;-83
2022/10/12 12:22:13;;;;;;;15.07;3.88;;;16.50;99.90;;;;;;6214239;23;20017;-83
2022/10/12 12:24:49;;;;;;;12.57;3.40;;;16.40;99.90;;;;;;6214618;23;20071;-83
2022/10/12 12:27:42;;;;;;;11.38;3.33;;;16.80;99.90;;;;;;6215161;23;20024;-83
2022/10/12 12:30:16;;;;;;;10.20;3.13;;;16.50;99.90;;;;;;6215586;23;20039;-83
2022/10/12 12:32:58;;;;;;;11.43;3.40;;;17.60;99.90;;;;;;6216052;23;20468;-84
2022/10/12 12:35:37;;;;;;;11.85;3.13;;;16.80;99.90;;;;;;6214772;23;20429;-84
2022/10/12 12:38:16;;;;;;;11.75;3.65;;;16.80;99.90;;;;;;6214260;23;20016;-84
2022/10/12 12:41:01;;;;;;;13.05;3.38;;;17.40;99.90;;;;;;6213155;23;20020;-84
2022/10/12 12:43:29;;;;;;;10.82;3.33;;;17.00;99.90;;;;;;6215323;23;20021;-84
2022/10/12 12:46:04;;;;;;;11.35;4.10;;;16.90;99.90;;;;;;6214738;23;20063;-85
2022/10/12 12:48:42;;;;;;;11.80;3.38;;;16.90;99.90;;;;;;6212155;23;20020;-84
2022/10/12 12:51:16;;;;;;;10.90;2.85;;;16.90;99.90;;;;;;6213154;23;20046;-85
2022/10/12 12:53:49;;;;;;;10.82;3.10;;;17.00;99.90;;;;;;6215620;23;20086;-85
2022/10/12 12:56:37;;;;;;;10.00;3.35;;;17.20;99.90;;;;;;6214774;23;20091;-85
2022/10/12 13:03:28;;;;;;;12.68;3.25;;;16.60;99.90;;;;;;6217985;23;20028;-85
2022/10/12 13:06:42;;;;;;;10.60;3.00;;;16.90;99.90;;;;;;6218418;23;20125;-85
2022/10/12 13:09:55;;;;;;;13.30;3.78;;;16.80;99.90;;;;;;6245207;23;20039;-85
2022/10/12 13:12:40;;;;;;;13.10;3.78;;;16.90;99.90;;;;;;6218657;23;20020;-85
2022/10/12 13:15:43;;;;;;;11.98;3.60;;;16.90;99.90;;;;;;6245611;23;20023;-85
2022/10/12 13:20:38;;;;;;;12.15;3.40;;;16.90;99.90;;;;;;6275230;22;20389;-85
2022/10/12 13:23:54;;;;;;;12.35;3.70;;;17.30;99.90;;;;;;6247940;22;20027;-85
2022/10/12 13:26:26;;;;;;;12.98;4.00;;;16.90;99.90;;;;;;6246790;22;20098;-85
2022/10/12 13:28:58;;;;;;;12.60;3.47;;;16.90;99.90;;;;;;6248742;22;20026;-85
2022/10/12 13:31:45;;;;;;;17.48;4.15;;;17.00;99.90;;;;;;6246371;22;20051;-85
2022/10/12 13:34:13;;;;;;;17.08;4.43;;;17.50;99.90;;;;;;6276330;22;20015;-85
2022/10/12 13:37:10;;;;;;;18.02;3.83;;;16.90;99.90;;;;;;6275107;22;20100;-85
2022/10/12 13:39:43;;;;;;;16.17;3.90;;;17.00;99.90;;;;;;6216878;22;20379;-85
2022/10/12 13:42:14;;;;;;;13.98;3.70;;;17.90;99.90;;;;;;6275603;22;20018;-84